sensor_id;sensor_type;location;lat;lon;timestamp;P1;durP1;ratioP1;P2;durP2;ratioP2
13693;SDS011;6919;52.344;14.518;2022-09-03T00:02:37;2.33;;;1.30;;
13693;SDS011;6919;52.344;14.518;2022-09-03T00:05:15;1.93;;;1.20;;
13693;SDS011;6919;52.344;14.518;2022-09-03T00:07:51;3.73;;;1.30;;
13693;SDS011;6919;52.344;14.518;2022-09-03T00:10:30;7.13;;;1.70;;
13693;SDS011;6919;52.344;14.518;2022-09-03T00:13:11;3.60;;;1.17;;
13693;SDS011;6919;52.344;14.518;2022-09-03T00:15:46;5.83;;;1.40;;
13693;SDS011;6919;52.344;14.518;2022-09-03T00:18:18;2.90;;;1.50;;
13693;SDS011;6919;52.344;14.518;2022-09-03T00:20:55;5.57;;;1.50;;
13693;SDS011;6919;52.344;14.518;2022-09-03T00:23:34;1.33;;;1.13;;
13693;SDS011;6919;52.344;14.518;2022-09-03T00:26:14;3.23;;;1.50;;
13693;SDS011;6919;52.344;14.518;2022-09-03T00:28:53;3.13;;;1.50;;
13693;SDS011;6919;52.344;14.518;2022-09-03T00:31:30;2.67;;;1.30;;
13693;SDS011;6919;52.344;14.518;2022-09-03T00:34:04;2.30;;;1.40;;
13693;SDS011;6919;52.344;14.518;2022-09-03T00:36:42;2.27;;;1.30;;
13693;SDS011;6919;52.344;14.518;2022-09-03T00:39:12;4.77;;;1.40;;
13693;SDS011;6919;52.344;14.518;2022-09-03T00:41:47;3.43;;;1.30;;
13693;SDS011;6919;52.344;14.518;2022-09-03T00:44:46;4.43;;;1.63;;
13693;SDS011;6919;52.344;14.518;2022-09-03T00:47:32;2.00;;;1.47;;
13693;SDS011;6919;52.344;14.518;2022-09-03T00:50:14;2.40;;;1.33;;
13693;SDS011;6919;52.344;14.518;2022-09-03T00:52:58;2.97;;;1.67;;
13693;SDS011;6919;52.344;14.518;2022-09-03T00:55:42;2.20;;;1.40;;
13693;SDS011;6919;52.344;14.518;2022-09-03T00:58:28;2.60;;;1.40;;
13693;SDS011;6919;52.344;14.518;2022-09-03T01:01:27;2.17;;;1.20;;
13693;SDS011;6919;52.344;14.518;2022-09-03T01:04:06;7.93;;;1.60;;
13693;SDS011;6919;52.344;14.518;2022-09-03T01:06:56;2.10;;;1.40;;
13693;SDS011;6919;52.344;14.518;2022-09-03T01:09:40;3.90;;;1.20;;
13693;SDS011;6919;52.344;14.518;2022-09-03T01:12:23;3.63;;;1.30;;
13693;SDS011;6919;52.344;14.518;2022-09-03T01:15:03;2.03;;;1.40;;
13693;SDS011;6919;52.344;14.518;2022-09-03T01:17:51;3.20;;;1.47;;
13693;SDS011;6919;52.344;14.518;2022-09-03T01:20:40;2.13;;;1.37;;
13693;SDS011;6919;52.344;14.518;2022-09-03T01:23:42;3.97;;;1.83;;
13693;SDS011;6919;52.344;14.518;2022-09-03T01:26:54;1.87;;;1.10;;
13693;SDS011;6919;52.344;14.518;2022-09-03T01:29:59;2.50;;;1.20;;
13693;SDS011;6919;52.344;14.518;2022-09-03T01:32:34;2.73;;;1.57;;
13693;SDS011;6919;52.344;14.518;2022-09-03T01:35:14;1.33;;;1.13;;
13693;SDS011;6919;52.344;14.518;2022-09-03T01:37:56;5.03;;;1.50;;
13693;SDS011;6919;52.344;14.518;2022-09-03T01:40:41;2.50;;;1.60;;
13693;SDS011;6919;52.344;14.518;2022-09-03T01:43:46;2.70;;;1.37;;
13693;SDS011;6919;52.344;14.518;2022-09-03T01:46:30;4.57;;;1.30;;
13693;SDS011;6919;52.344;14.518;2022-09-03T01:49:09;2.43;;;1.67;;
13693;SDS011;6919;52.344;14.518;2022-09-03T01:51:49;2.20;;;1.43;;
13693;SDS011;6919;52.344;14.518;2022-09-03T01:54:34;3.63;;;1.70;;
13693;SDS011;6919;52.344;14.518;2022-09-03T02:00:15;2.00;;;1.23;;
13693;SDS011;6919;52.344;14.518;2022-09-03T02:02:47;3.27;;;1.70;;
13693;SDS011;6919;52.344;14.518;2022-09-03T02:05:19;3.60;;;1.10;;
13693;SDS011;6919;52.344;14.518;2022-09-03T02:07:53;3.33;;;1.27;;
13693;SDS011;6919;52.344;14.518;2022-09-03T02:10:27;2.90;;;1.70;;
13693;SDS011;6919;52.344;14.518;2022-09-03T02:12:59;3.17;;;1.70;;
13693;SDS011;6919;52.344;14.518;2022-09-03T02:15:34;4.57;;;1.43;;
13693;SDS011;6919;52.344;14.518;2022-09-03T02:18:09;3.23;;;1.60;;
13693;SDS011;6919;52.344;14.518;2022-09-03T02:20:43;1.80;;;1.30;;
13693;SDS011;6919;52.344;14.518;2022-09-03T02:23:15;3.90;;;1.30;;
13693;SDS011;6919;52.344;14.518;2022-09-03T02:25:50;4.20;;;1.90;;
13693;SDS011;6919;52.344;14.518;2022-09-03T02:28:23;10.87;;;1.70;;
13693;SDS011;6919;52.344;14.518;2022-09-03T02:30:54;2.43;;;1.70;;
13693;SDS011;6919;52.344;14.518;2022-09-03T02:33:24;2.80;;;1.60;;
13693;SDS011;6919;52.344;14.518;2022-09-03T02:35:53;7.37;;;1.57;;
13693;SDS011;6919;52.344;14.518;2022-09-03T02:38:23;1.93;;;1.50;;
13693;SDS011;6919;52.344;14.518;2022-09-03T02:40:53;2.03;;;1.47;;
13693;SDS011;6919;52.344;14.518;2022-09-03T02:43:23;1.43;;;1.13;;
13693;SDS011;6919;52.344;14.518;2022-09-03T02:46:01;5.10;;;1.43;;
13693;SDS011;6919;52.344;14.518;2022-09-03T02:48:35;5.80;;;1.50;;
13693;SDS011;6919;52.344;14.518;2022-09-03T02:51:03;5.37;;;1.70;;
13693;SDS011;6919;52.344;14.518;2022-09-03T02:53:39;7.80;;;1.73;;
13693;SDS011;6919;52.344;14.518;2022-09-03T02:56:08;2.60;;;2.00;;
13693;SDS011;6919;52.344;14.518;2022-09-03T02:58:37;3.20;;;1.57;;
13693;SDS011;6919;52.344;14.518;2022-09-03T03:01:06;6.70;;;1.57;;
13693;SDS011;6919;52.344;14.518;2022-09-03T03:03:36;8.43;;;1.97;;
13693;SDS011;6919;52.344;14.518;2022-09-03T03:06:04;3.13;;;1.70;;
13693;SDS011;6919;52.344;14.518;2022-09-03T03:08:33;1.93;;;1.50;;
13693;SDS011;6919;52.344;14.518;2022-09-03T03:11:01;4.53;;;1.67;;
13693;SDS011;6919;52.344;14.518;2022-09-03T03:13:30;2.43;;;1.50;;
13693;SDS011;6919;52.344;14.518;2022-09-03T03:16:00;2.03;;;1.60;;
13693;SDS011;6919;52.344;14.518;2022-09-03T03:18:31;3.27;;;1.73;;
13693;SDS011;6919;52.344;14.518;2022-09-03T03:21:04;5.83;;;2.13;;
13693;SDS011;6919;52.344;14.518;2022-09-03T03:23:34;6.50;;;2.13;;
13693;SDS011;6919;52.344;14.518;2022-09-03T03:26:05;3.43;;;1.60;;
13693;SDS011;6919;52.344;14.518;2022-09-03T03:28:35;1.87;;;1.37;;
13693;SDS011;6919;52.344;14.518;2022-09-03T03:31:04;4.30;;;2.07;;
13693;SDS011;6919;52.344;14.518;2022-09-03T03:33:34;2.87;;;1.60;;
13693;SDS011;6919;52.344;14.518;2022-09-03T03:36:04;3.93;;;2.03;;
13693;SDS011;6919;52.344;14.518;2022-09-03T03:38:34;7.93;;;2.20;;
13693;SDS011;6919;52.344;14.518;2022-09-03T03:41:07;3.40;;;1.83;;
13693;SDS011;6919;52.344;14.518;2022-09-03T03:43:36;5.20;;;1.80;;
13693;SDS011;6919;52.344;14.518;2022-09-03T03:46:05;3.43;;;2.10;;
13693;SDS011;6919;52.344;14.518;2022-09-03T03:48:34;3.53;;;2.23;;
13693;SDS011;6919;52.344;14.518;2022-09-03T03:51:06;5.03;;;2.00;;
13693;SDS011;6919;52.344;14.518;2022-09-03T03:53:36;6.50;;;2.00;;
13693;SDS011;6919;52.344;14.518;2022-09-03T03:56:06;3.77;;;2.00;;
13693;SDS011;6919;52.344;14.518;2022-09-03T03:58:36;4.07;;;2.10;;
13693;SDS011;6919;52.344;14.518;2022-09-03T04:01:08;3.83;;;2.20;;
13693;SDS011;6919;52.344;14.518;2022-09-03T04:03:40;4.93;;;1.90;;
13693;SDS011;6919;52.344;14.518;2022-09-03T04:06:11;2.57;;;1.77;;
13693;SDS011;6919;52.344;14.518;2022-09-03T04:08:43;4.87;;;1.90;;
13693;SDS011;6919;52.344;14.518;2022-09-03T04:11:15;3.87;;;2.37;;
13693;SDS011;6919;52.344;14.518;2022-09-03T04:13:48;4.53;;;2.20;;
13693;SDS011;6919;52.344;14.518;2022-09-03T04:16:18;7.23;;;2.37;;
13693;SDS011;6919;52.344;14.518;2022-09-03T04:18:48;5.00;;;2.03;;
13693;SDS011;6919;52.344;14.518;2022-09-03T04:21:19;5.13;;;2.77;;
13693;SDS011;6919;52.344;14.518;2022-09-03T04:23:50;3.83;;;1.90;;
13693;SDS011;6919;52.344;14.518;2022-09-03T04:26:20;4.00;;;1.90;;
13693;SDS011;6919;52.344;14.518;2022-09-03T04:28:52;3.80;;;2.10;;
13693;SDS011;6919;52.344;14.518;2022-09-03T04:31:20;3.53;;;2.10;;
13693;SDS011;6919;52.344;14.518;2022-09-03T04:33:48;3.27;;;2.20;;
13693;SDS011;6919;52.344;14.518;2022-09-03T04:36:19;2.90;;;1.77;;
13693;SDS011;6919;52.344;14.518;2022-09-03T04:38:50;2.57;;;1.80;;
13693;SDS011;6919;52.344;14.518;2022-09-03T04:41:22;7.90;;;2.50;;
13693;SDS011;6919;52.344;14.518;2022-09-03T04:43:52;3.07;;;1.90;;
13693;SDS011;6919;52.344;14.518;2022-09-03T04:46:23;2.23;;;1.93;;
13693;SDS011;6919;52.344;14.518;2022-09-03T04:48:59;4.97;;;1.70;;
13693;SDS011;6919;52.344;14.518;2022-09-03T04:51:29;4.47;;;2.10;;
13693;SDS011;6919;52.344;14.518;2022-09-03T04:53:58;3.23;;;2.10;;
13693;SDS011;6919;52.344;14.518;2022-09-03T04:56:29;2.10;;;1.80;;
13693;SDS011;6919;52.344;14.518;2022-09-03T04:59:00;5.80;;;2.07;;
13693;SDS011;6919;52.344;14.518;2022-09-03T05:01:31;3.60;;;2.10;;
13693;SDS011;6919;52.344;14.518;2022-09-03T05:04:02;3.63;;;1.87;;
13693;SDS011;6919;52.344;14.518;2022-09-03T05:06:34;6.60;;;2.03;;
13693;SDS011;6919;52.344;14.518;2022-09-03T05:09:03;5.20;;;1.90;;
13693;SDS011;6919;52.344;14.518;2022-09-03T05:11:32;3.73;;;2.07;;
13693;SDS011;6919;52.344;14.518;2022-09-03T05:14:00;4.47;;;2.60;;
13693;SDS011;6919;52.344;14.518;2022-09-03T05:16:31;7.40;;;2.53;;
13693;SDS011;6919;52.344;14.518;2022-09-03T05:18:59;4.57;;;2.00;;
13693;SDS011;6919;52.344;14.518;2022-09-03T05:21:31;4.03;;;2.20;;
13693;SDS011;6919;52.344;14.518;2022-09-03T05:24:03;3.77;;;2.03;;
13693;SDS011;6919;52.344;14.518;2022-09-03T05:26:32;5.77;;;2.40;;
13693;SDS011;6919;52.344;14.518;2022-09-03T05:29:05;7.53;;;2.53;;
13693;SDS011;6919;52.344;14.518;2022-09-03T05:31:35;3.30;;;1.90;;
13693;SDS011;6919;52.344;14.518;2022-09-03T05:34:06;4.43;;;2.13;;
13693;SDS011;6919;52.344;14.518;2022-09-03T05:36:41;2.87;;;1.87;;
13693;SDS011;6919;52.344;14.518;2022-09-03T05:39:13;6.93;;;2.10;;
13693;SDS011;6919;52.344;14.518;2022-09-03T05:41:41;4.03;;;1.80;;
13693;SDS011;6919;52.344;14.518;2022-09-03T05:44:10;6.60;;;1.87;;
13693;SDS011;6919;52.344;14.518;2022-09-03T05:46:38;7.40;;;2.13;;
13693;SDS011;6919;52.344;14.518;2022-09-03T05:49:06;6.17;;;1.80;;
13693;SDS011;6919;52.344;14.518;2022-09-03T05:51:37;2.80;;;1.93;;
13693;SDS011;6919;52.344;14.518;2022-09-03T05:54:05;4.37;;;2.03;;
13693;SDS011;6919;52.344;14.518;2022-09-03T05:56:36;3.43;;;1.87;;
13693;SDS011;6919;52.344;14.518;2022-09-03T05:59:07;8.13;;;2.20;;
13693;SDS011;6919;52.344;14.518;2022-09-03T06:01:37;3.83;;;1.70;;
13693;SDS011;6919;52.344;14.518;2022-09-03T06:04:16;5.23;;;2.10;;
13693;SDS011;6919;52.344;14.518;2022-09-03T06:06:46;5.03;;;1.87;;
13693;SDS011;6919;52.344;14.518;2022-09-03T06:09:18;4.97;;;2.33;;
13693;SDS011;6919;52.344;14.518;2022-09-03T06:11:50;5.63;;;1.90;;
13693;SDS011;6919;52.344;14.518;2022-09-03T06:14:22;6.93;;;1.97;;
13693;SDS011;6919;52.344;14.518;2022-09-03T06:16:51;5.77;;;2.10;;
13693;SDS011;6919;52.344;14.518;2022-09-03T06:19:20;3.73;;;2.00;;
13693;SDS011;6919;52.344;14.518;2022-09-03T06:21:49;3.17;;;1.73;;
13693;SDS011;6919;52.344;14.518;2022-09-03T06:24:17;5.03;;;1.90;;
13693;SDS011;6919;52.344;14.518;2022-09-03T06:26:53;3.63;;;1.77;;
13693;SDS011;6919;52.344;14.518;2022-09-03T06:29:21;2.90;;;1.93;;
13693;SDS011;6919;52.344;14.518;2022-09-03T06:31:49;4.10;;;2.00;;
13693;SDS011;6919;52.344;14.518;2022-09-03T06:34:17;2.73;;;1.50;;
13693;SDS011;6919;52.344;14.518;2022-09-03T06:36:47;24.33;;;2.73;;
13693;SDS011;6919;52.344;14.518;2022-09-03T06:39:19;3.10;;;1.60;;
13693;SDS011;6919;52.344;14.518;2022-09-03T06:41:48;2.90;;;1.77;;
13693;SDS011;6919;52.344;14.518;2022-09-03T06:44:18;5.83;;;1.60;;
13693;SDS011;6919;52.344;14.518;2022-09-03T06:46:46;5.37;;;2.10;;
13693;SDS011;6919;52.344;14.518;2022-09-03T06:49:15;3.37;;;1.93;;
13693;SDS011;6919;52.344;14.518;2022-09-03T06:51:44;3.80;;;1.73;;
13693;SDS011;6919;52.344;14.518;2022-09-03T06:54:13;5.07;;;2.00;;
13693;SDS011;6919;52.344;14.518;2022-09-03T06:56:41;5.53;;;1.53;;
13693;SDS011;6919;52.344;14.518;2022-09-03T06:59:10;5.63;;;1.83;;
13693;SDS011;6919;52.344;14.518;2022-09-03T07:01:42;5.90;;;2.03;;
13693;SDS011;6919;52.344;14.518;2022-09-03T07:04:12;3.20;;;1.80;;
13693;SDS011;6919;52.344;14.518;2022-09-03T07:06:44;6.40;;;2.10;;
13693;SDS011;6919;52.344;14.518;2022-09-03T07:09:14;4.40;;;1.90;;
13693;SDS011;6919;52.344;14.518;2022-09-03T07:11:44;3.07;;;1.93;;
13693;SDS011;6919;52.344;14.518;2022-09-03T07:14:14;3.47;;;2.03;;
13693;SDS011;6919;52.344;14.518;2022-09-03T07:16:46;6.40;;;1.90;;
13693;SDS011;6919;52.344;14.518;2022-09-03T07:19:16;2.70;;;1.90;;
13693;SDS011;6919;52.344;14.518;2022-09-03T07:21:44;3.83;;;1.77;;
13693;SDS011;6919;52.344;14.518;2022-09-03T07:24:16;3.20;;;1.70;;
13693;SDS011;6919;52.344;14.518;2022-09-03T07:26:47;6.73;;;2.20;;
13693;SDS011;6919;52.344;14.518;2022-09-03T07:29:16;4.57;;;2.13;;
13693;SDS011;6919;52.344;14.518;2022-09-03T07:31:48;4.27;;;2.23;;
13693;SDS011;6919;52.344;14.518;2022-09-03T07:34:18;3.57;;;1.67;;
13693;SDS011;6919;52.344;14.518;2022-09-03T07:36:51;2.60;;;1.90;;
13693;SDS011;6919;52.344;14.518;2022-09-03T07:39:20;2.47;;;1.80;;
13693;SDS011;6919;52.344;14.518;2022-09-03T07:41:49;3.10;;;2.13;;
13693;SDS011;6919;52.344;14.518;2022-09-03T07:44:17;4.80;;;2.33;;
13693;SDS011;6919;52.344;14.518;2022-09-03T07:46:47;4.50;;;1.80;;
13693;SDS011;6919;52.344;14.518;2022-09-03T07:49:17;3.10;;;1.83;;
13693;SDS011;6919;52.344;14.518;2022-09-03T07:51:47;2.03;;;1.80;;
13693;SDS011;6919;52.344;14.518;2022-09-03T07:54:19;2.97;;;1.77;;
13693;SDS011;6919;52.344;14.518;2022-09-03T07:56:49;5.73;;;1.80;;
13693;SDS011;6919;52.344;14.518;2022-09-03T07:59:18;3.73;;;1.80;;
13693;SDS011;6919;52.344;14.518;2022-09-03T08:01:49;4.67;;;1.70;;
13693;SDS011;6919;52.344;14.518;2022-09-03T08:04:18;2.93;;;2.00;;
13693;SDS011;6919;52.344;14.518;2022-09-03T08:06:47;3.07;;;1.70;;
13693;SDS011;6919;52.344;14.518;2022-09-03T08:09:15;3.00;;;1.53;;
13693;SDS011;6919;52.344;14.518;2022-09-03T08:11:43;3.93;;;1.73;;
13693;SDS011;6919;52.344;14.518;2022-09-03T08:14:12;2.73;;;1.60;;
13693;SDS011;6919;52.344;14.518;2022-09-03T08:16:42;2.53;;;1.43;;
13693;SDS011;6919;52.344;14.518;2022-09-03T08:19:15;3.13;;;1.63;;
13693;SDS011;6919;52.344;14.518;2022-09-03T08:21:44;4.00;;;1.67;;
13693;SDS011;6919;52.344;14.518;2022-09-03T08:24:14;2.00;;;1.33;;
13693;SDS011;6919;52.344;14.518;2022-09-03T08:26:46;2.00;;;1.57;;
13693;SDS011;6919;52.344;14.518;2022-09-03T08:29:18;2.40;;;1.40;;
13693;SDS011;6919;52.344;14.518;2022-09-03T08:31:47;4.13;;;1.60;;
13693;SDS011;6919;52.344;14.518;2022-09-03T08:34:17;1.90;;;1.40;;
13693;SDS011;6919;52.344;14.518;2022-09-03T08:36:46;2.73;;;1.47;;
13693;SDS011;6919;52.344;14.518;2022-09-03T08:39:15;5.17;;;1.33;;
13693;SDS011;6919;52.344;14.518;2022-09-03T08:41:47;2.53;;;1.50;;
13693;SDS011;6919;52.344;14.518;2022-09-03T08:44:48;4.87;;;1.83;;
13693;SDS011;6919;52.344;14.518;2022-09-03T08:47:22;4.27;;;1.50;;
13693;SDS011;6919;52.344;14.518;2022-09-03T08:50:00;2.33;;;1.20;;
13693;SDS011;6919;52.344;14.518;2022-09-03T08:52:37;2.73;;;1.50;;
13693;SDS011;6919;52.344;14.518;2022-09-03T08:55:15;3.03;;;1.50;;
13693;SDS011;6919;52.344;14.518;2022-09-03T08:57:52;3.07;;;1.60;;
13693;SDS011;6919;52.344;14.518;2022-09-03T09:00:34;5.17;;;1.40;;
13693;SDS011;6919;52.344;14.518;2022-09-03T09:03:20;3.83;;;1.47;;
13693;SDS011;6919;52.344;14.518;2022-09-03T09:06:17;4.60;;;2.20;;
13693;SDS011;6919;52.344;14.518;2022-09-03T09:08:58;2.40;;;1.50;;
13693;SDS011;6919;52.344;14.518;2022-09-03T09:11:43;5.60;;;1.60;;
13693;SDS011;6919;52.344;14.518;2022-09-03T09:14:26;8.07;;;1.20;;
13693;SDS011;6919;52.344;14.518;2022-09-03T09:17:10;4.03;;;1.33;;
13693;SDS011;6919;52.344;14.518;2022-09-03T09:20:02;5.87;;;1.57;;
13693;SDS011;6919;52.344;14.518;2022-09-03T09:22:40;2.40;;;1.50;;
13693;SDS011;6919;52.344;14.518;2022-09-03T09:25:13;3.27;;;1.40;;
13693;SDS011;6919;52.344;14.518;2022-09-03T09:27:47;3.90;;;1.60;;
13693;SDS011;6919;52.344;14.518;2022-09-03T09:30:23;2.20;;;1.57;;
13693;SDS011;6919;52.344;14.518;2022-09-03T09:32:51;3.10;;;1.60;;
13693;SDS011;6919;52.344;14.518;2022-09-03T09:35:21;3.33;;;1.60;;
13693;SDS011;6919;52.344;14.518;2022-09-03T09:37:52;2.53;;;1.40;;
13693;SDS011;6919;52.344;14.518;2022-09-03T09:40:25;2.53;;;1.50;;
13693;SDS011;6919;52.344;14.518;2022-09-03T09:43:04;4.30;;;1.53;;
13693;SDS011;6919;52.344;14.518;2022-09-03T09:45:36;2.87;;;1.30;;
13693;SDS011;6919;52.344;14.518;2022-09-03T09:48:20;2.33;;;1.53;;
13693;SDS011;6919;52.344;14.518;2022-09-03T09:51:03;2.10;;;1.30;;
13693;SDS011;6919;52.344;14.518;2022-09-03T09:53:35;5.47;;;1.37;;
13693;SDS011;6919;52.344;14.518;2022-09-03T09:56:04;2.17;;;1.40;;
13693;SDS011;6919;52.344;14.518;2022-09-03T09:58:34;6.73;;;2.13;;
13693;SDS011;6919;52.344;14.518;2022-09-03T10:01:03;1.87;;;1.33;;
13693;SDS011;6919;52.344;14.518;2022-09-03T10:03:40;4.50;;;1.53;;
13693;SDS011;6919;52.344;14.518;2022-09-03T10:06:22;1.70;;;1.30;;
13693;SDS011;6919;52.344;14.518;2022-09-03T10:09:11;2.33;;;1.47;;
13693;SDS011;6919;52.344;14.518;2022-09-03T10:11:42;3.60;;;1.40;;
13693;SDS011;6919;52.344;14.518;2022-09-03T10:14:18;1.87;;;1.23;;
13693;SDS011;6919;52.344;14.518;2022-09-03T10:16:59;1.77;;;1.03;;
13693;SDS011;6919;52.344;14.518;2022-09-03T10:19:39;2.30;;;1.30;;
13693;SDS011;6919;52.344;14.518;2022-09-03T10:22:38;2.33;;;1.30;;
13693;SDS011;6919;52.344;14.518;2022-09-03T10:25:25;1.37;;;1.13;;
13693;SDS011;6919;52.344;14.518;2022-09-03T10:28:05;2.23;;;1.20;;
13693;SDS011;6919;52.344;14.518;2022-09-03T10:30:46;2.23;;;1.13;;
13693;SDS011;6919;52.344;14.518;2022-09-03T10:33:48;5.97;;;1.43;;
13693;SDS011;6919;52.344;14.518;2022-09-03T10:36:25;2.10;;;1.30;;
13693;SDS011;6919;52.344;14.518;2022-09-03T10:39:07;7.60;;;1.77;;
13693;SDS011;6919;52.344;14.518;2022-09-03T10:41:46;2.87;;;1.13;;
13693;SDS011;6919;52.344;14.518;2022-09-03T10:44:36;3.17;;;1.30;;
13693;SDS011;6919;52.344;14.518;2022-09-03T10:47:27;3.37;;;1.20;;
13693;SDS011;6919;52.344;14.518;2022-09-03T10:50:12;2.53;;;0.83;;
13693;SDS011;6919;52.344;14.518;2022-09-03T10:55:43;3.73;;;1.00;;
13693;SDS011;6919;52.344;14.518;2022-09-03T10:58:27;1.23;;;1.07;;
13693;SDS011;6919;52.344;14.518;2022-09-03T11:01:12;5.40;;;1.30;;
13693;SDS011;6919;52.344;14.518;2022-09-03T11:03:55;2.90;;;1.20;;
13693;SDS011;6919;52.344;14.518;2022-09-03T11:06:47;1.97;;;1.30;;
13693;SDS011;6919;52.344;14.518;2022-09-03T11:09:21;7.43;;;1.13;;
13693;SDS011;6919;52.344;14.518;2022-09-03T11:11:59;1.37;;;1.20;;
13693;SDS011;6919;52.344;14.518;2022-09-03T11:14:37;1.93;;;1.20;;
13693;SDS011;6919;52.344;14.518;2022-09-03T11:17:13;4.13;;;1.57;;
13693;SDS011;6919;52.344;14.518;2022-09-03T11:19:51;7.40;;;1.53;;
13693;SDS011;6919;52.344;14.518;2022-09-03T11:22:34;2.27;;;1.27;;
13693;SDS011;6919;52.344;14.518;2022-09-03T11:25:04;1.93;;;1.20;;
13693;SDS011;6919;52.344;14.518;2022-09-03T11:27:44;3.90;;;1.30;;
13693;SDS011;6919;52.344;14.518;2022-09-03T11:30:25;3.07;;;1.37;;
13693;SDS011;6919;52.344;14.518;2022-09-03T11:33:05;1.00;;;0.90;;
13693;SDS011;6919;52.344;14.518;2022-09-03T11:35:38;2.30;;;1.00;;
13693;SDS011;6919;52.344;14.518;2022-09-03T11:38:18;7.33;;;1.20;;
13693;SDS011;6919;52.344;14.518;2022-09-03T11:40:56;3.53;;;1.00;;
13693;SDS011;6919;52.344;14.518;2022-09-03T11:43:30;1.40;;;1.10;;
13693;SDS011;6919;52.344;14.518;2022-09-03T11:46:03;1.30;;;1.10;;
13693;SDS011;6919;52.344;14.518;2022-09-03T11:48:39;1.30;;;1.13;;
13693;SDS011;6919;52.344;14.518;2022-09-03T11:51:20;2.17;;;1.47;;
13693;SDS011;6919;52.344;14.518;2022-09-03T11:54:01;2.50;;;1.30;;
13693;SDS011;6919;52.344;14.518;2022-09-03T11:56:34;3.70;;;1.00;;
13693;SDS011;6919;52.344;14.518;2022-09-03T11:59:14;2.40;;;1.33;;
13693;SDS011;6919;52.344;14.518;2022-09-03T12:01:49;2.00;;;1.20;;
13693;SDS011;6919;52.344;14.518;2022-09-03T12:04:24;2.10;;;1.33;;
13693;SDS011;6919;52.344;14.518;2022-09-03T12:07:08;2.33;;;1.10;;
13693;SDS011;6919;52.344;14.518;2022-09-03T12:13:12;2.43;;;1.30;;
13693;SDS011;6919;52.344;14.518;2022-09-03T12:19:24;1.90;;;1.20;;
13693;SDS011;6919;52.344;14.518;2022-09-03T12:22:02;2.30;;;1.20;;
13693;SDS011;6919;52.344;14.518;2022-09-03T12:24:31;1.40;;;0.97;;
13693;SDS011;6919;52.344;14.518;2022-09-03T12:27:03;1.57;;;1.20;;
13693;SDS011;6919;52.344;14.518;2022-09-03T12:29:35;3.73;;;1.23;;
13693;SDS011;6919;52.344;14.518;2022-09-03T12:32:06;1.63;;;1.10;;
13693;SDS011;6919;52.344;14.518;2022-09-03T12:34:39;1.47;;;1.00;;
13693;SDS011;6919;52.344;14.518;2022-09-03T12:37:15;1.93;;;1.43;;
13693;SDS011;6919;52.344;14.518;2022-09-03T12:40:15;2.03;;;1.03;;
13693;SDS011;6919;52.344;14.518;2022-09-03T12:42:47;1.77;;;1.20;;
13693;SDS011;6919;52.344;14.518;2022-09-03T12:45:17;4.37;;;1.03;;
13693;SDS011;6919;52.344;14.518;2022-09-03T12:47:49;1.40;;;1.30;;
13693;SDS011;6919;52.344;14.518;2022-09-03T12:50:19;2.80;;;1.40;;
13693;SDS011;6919;52.344;14.518;2022-09-03T12:52:50;4.77;;;1.20;;
13693;SDS011;6919;52.344;14.518;2022-09-03T12:55:27;1.23;;;1.10;;
13693;SDS011;6919;52.344;14.518;2022-09-03T12:58:02;5.93;;;1.67;;
13693;SDS011;6919;52.344;14.518;2022-09-03T13:00:40;1.08;;;0.95;;
13693;SDS011;6919;52.344;14.518;2022-09-03T13:03:16;3.28;;;1.45;;
13693;SDS011;6919;52.344;14.518;2022-09-03T13:05:51;4.15;;;1.13;;
13693;SDS011;6919;52.344;14.518;2022-09-03T13:08:26;2.28;;;1.33;;
13693;SDS011;6919;52.344;14.518;2022-09-03T13:11:00;4.05;;;1.13;;
13693;SDS011;6919;52.344;14.518;2022-09-03T13:13:31;2.95;;;1.10;;
13693;SDS011;6919;52.344;14.518;2022-09-03T13:16:11;2.03;;;1.38;;
13693;SDS011;6919;52.344;14.518;2022-09-03T13:19:14;2.30;;;1.30;;
13693;SDS011;6919;52.344;14.518;2022-09-03T13:22:00;4.35;;;1.52;;
13693;SDS011;6919;52.344;14.518;2022-09-03T13:24:42;4.50;;;1.70;;
13693;SDS011;6919;52.344;14.518;2022-09-03T13:27:41;1.90;;;1.40;;
13693;SDS011;6919;52.344;14.518;2022-09-03T13:30:28;2.65;;;1.73;;
13693;SDS011;6919;52.344;14.518;2022-09-03T13:33:04;1.45;;;1.25;;
13693;SDS011;6919;52.344;14.518;2022-09-03T13:35:53;4.22;;;1.70;;
13693;SDS011;6919;52.344;14.518;2022-09-03T13:38:30;1.42;;;1.10;;
13693;SDS011;6919;52.344;14.518;2022-09-03T13:41:08;2.30;;;1.60;;
13693;SDS011;6919;52.344;14.518;2022-09-03T13:43:46;1.20;;;1.10;;
13693;SDS011;6919;52.344;14.518;2022-09-03T13:46:24;2.70;;;1.48;;
13693;SDS011;6919;52.344;14.518;2022-09-03T13:49:07;1.88;;;1.42;;
13693;SDS011;6919;52.344;14.518;2022-09-03T13:52:09;4.07;;;1.65;;
13693;SDS011;6919;52.344;14.518;2022-09-03T13:54:50;1.85;;;1.30;;
13693;SDS011;6919;52.344;14.518;2022-09-03T13:57:28;3.05;;;1.10;;
13693;SDS011;6919;52.344;14.518;2022-09-03T14:00:06;4.30;;;1.40;;
13693;SDS011;6919;52.344;14.518;2022-09-03T14:02:49;1.45;;;1.20;;
13693;SDS011;6919;52.344;14.518;2022-09-03T14:05:31;4.10;;;1.20;;
13693;SDS011;6919;52.344;14.518;2022-09-03T14:08:17;3.43;;;1.27;;
13693;SDS011;6919;52.344;14.518;2022-09-03T14:10:56;2.80;;;1.40;;
13693;SDS011;6919;52.344;14.518;2022-09-03T14:13:39;2.47;;;1.47;;
13693;SDS011;6919;52.344;14.518;2022-09-03T14:16:24;3.27;;;1.47;;
13693;SDS011;6919;52.344;14.518;2022-09-03T14:19:05;3.42;;;1.70;;
13693;SDS011;6919;52.344;14.518;2022-09-03T14:21:43;1.70;;;1.40;;
13693;SDS011;6919;52.344;14.518;2022-09-03T14:24:23;2.50;;;1.50;;
13693;SDS011;6919;52.344;14.518;2022-09-03T14:27:01;2.37;;;1.60;;
13693;SDS011;6919;52.344;14.518;2022-09-03T14:29:31;3.23;;;1.23;;
13693;SDS011;6919;52.344;14.518;2022-09-03T14:32:05;7.87;;;1.60;;
13693;SDS011;6919;52.344;14.518;2022-09-03T14:34:59;1.87;;;1.40;;
13693;SDS011;6919;52.344;14.518;2022-09-03T14:38:12;7.47;;;2.10;;
13693;SDS011;6919;52.344;14.518;2022-09-03T14:44:42;3.33;;;1.47;;
13693;SDS011;6919;52.344;14.518;2022-09-03T14:47:42;5.60;;;2.03;;
13693;SDS011;6919;52.344;14.518;2022-09-03T14:50:56;5.63;;;1.80;;
13693;SDS011;6919;52.344;14.518;2022-09-03T14:53:51;2.83;;;1.47;;
13693;SDS011;6919;52.344;14.518;2022-09-03T14:56:53;2.47;;;1.60;;
13693;SDS011;6919;52.344;14.518;2022-09-03T14:59:47;2.87;;;1.70;;
13693;SDS011;6919;52.344;14.518;2022-09-03T15:02:42;2.27;;;1.87;;
13693;SDS011;6919;52.344;14.518;2022-09-03T15:05:46;5.00;;;1.70;;
13693;SDS011;6919;52.344;14.518;2022-09-03T15:08:35;3.97;;;1.45;;
13693;SDS011;6919;52.344;14.518;2022-09-03T15:11:21;3.23;;;1.63;;
13693;SDS011;6919;52.344;14.518;2022-09-03T15:13:59;2.33;;;1.40;;
13693;SDS011;6919;52.344;14.518;2022-09-03T15:16:42;5.53;;;1.63;;
13693;SDS011;6919;52.344;14.518;2022-09-03T15:22:26;2.50;;;1.80;;
13693;SDS011;6919;52.344;14.518;2022-09-03T15:25:17;2.27;;;1.87;;
13693;SDS011;6919;52.344;14.518;2022-09-03T15:28:03;4.23;;;2.60;;
13693;SDS011;6919;52.344;14.518;2022-09-03T15:30:44;1.95;;;1.50;;
13693;SDS011;6919;52.344;14.518;2022-09-03T15:33:23;3.33;;;1.70;;
13693;SDS011;6919;52.344;14.518;2022-09-03T15:38:49;3.00;;;1.73;;
13693;SDS011;6919;52.344;14.518;2022-09-03T15:41:39;7.63;;;2.00;;
13693;SDS011;6919;52.344;14.518;2022-09-03T15:44:17;2.17;;;1.70;;
13693;SDS011;6919;52.344;14.518;2022-09-03T15:46:49;1.70;;;1.60;;
13693;SDS011;6919;52.344;14.518;2022-09-03T15:49:27;3.00;;;1.90;;
13693;SDS011;6919;52.344;14.518;2022-09-03T15:52:20;2.27;;;1.67;;
13693;SDS011;6919;52.344;14.518;2022-09-03T15:55:00;2.90;;;1.80;;
13693;SDS011;6919;52.344;14.518;2022-09-03T15:57:38;3.90;;;1.70;;
13693;SDS011;6919;52.344;14.518;2022-09-03T16:00:20;4.87;;;1.93;;
13693;SDS011;6919;52.344;14.518;2022-09-03T16:02:52;4.20;;;1.63;;
13693;SDS011;6919;52.344;14.518;2022-09-03T16:05:35;2.70;;;1.80;;
13693;SDS011;6919;52.344;14.518;2022-09-03T16:08:13;4.07;;;1.73;;